Terminal Aerodrome Forecast
Issued by NWS Buffalo, NY

Home | Current Version | Previous Version | Text Only | Print | Product List | Glossary On
Versions: 1 2 3 4 5 6 7 8 9 10 11 12 13 14 15 16 17 18 19 20 21 22 23 24 25
000
FTUS41 KBUF 220500
TAFBUF
TAF
KBUF 220520Z 2206/2306 12005KT P6SM OVC020
     FM221200 11006KT P6SM BKN035
     FM221500 12007KT P6SM SCT050
     FM221800 12008KT P6SM SCT200=

USA.gov is the U.S. government's official web portal to all federal, state and local government web resources and services.